Hewlett, NY

3:47 AM EDT on September 22, 2014 (GMT -0400)
Valley Stream | Change Station
CLOSE
Current Station
Personal Weather Station
Location: Valley Stream, NY
Elevation: 12 ft
Nearby Weather Stations

Elev 12 ft 40.65 °N, 73.69 °W | Updated 7 minutes ago

Overcast
Overcast
66.1 °F
Feels Like 66.1 °F
N
1.0
Wind Variable Wind from WNW
Gusts 3.0 mph

Today
High -- | Low -- °F
--% Chance of Precip.
Yesterday
High -- | Low -- °F
Precip. -- in
6:42 AM 6:51 PM
Waning Crescent, 3% visible
Pressure 29.67 in
Visibility 10.0 miles
Clouds Few 1800 ft
Mostly Cloudy 3300 ft
Overcast 13000 ft
Dew Point 60 °F
Humidity 82%
Rainfall 0.02 in
Snow Depth Not available.
UV 0 out of 12
Pollen 2.70 out of 12
Air Quality Not available.
Flu Activity Not available.
METAR KJFK 220651Z 30009KT 10SM FEW018 BKN033 OVC130 20/14 A2967 RMK AO2 SLP047 T02000144 $

More Conditions Fewer Conditions

Pressure 29.67 in
Visibility 10.0 miles
Clouds Few 1800 ft
Mostly Cloudy 3300 ft
Overcast 13000 ft
Dew Point 60 °F
Humidity 82%
Rainfall 0.02 in
Snow Depth Not available.
UV 0 out of 12
Pollen 2.70 out of 12
Air Quality Not available.
Flu Activity Not available.
METAR KJFK 220651Z 30009KT 10SM FEW018 BKN033 OVC130 20/14 A2967 RMK AO2 SLP047 T02000144 $

More Conditions Fewer Conditions

10-Day Weather Forecast

Almanac

Astronomy

Sep. 22, 2014 Rise Set
Actual Time 6:42 AM EDT 6:51 PM EDT
Civil Twilight 6:14 AM EDT 7:19 PM EDT
Nautical Twilight 5:42 AM EDT 7:51 PM EDT
Astronomical Twilight 5:10 AM EDT 8:23 PM EDT
Moon 5:08 AM EDT 5:58 PM EDT
Length of Visible Light 13h 04m
Length of Day
12h 09m
Tomorrow will be 2m 40s shorter.
Waning Crescent, 3% of the Moon is Illuminated
Today
Waning Crescent
Sep 24
New
Oct 1
First Quarter
Oct 8
Full
Oct 15
Last Quarter

Today's Extremes

State Highs State Lows

Community

WunderPhotos

Upload Photos

1,755,392 photos uploaded!

Nearby

Snow Depth

Station Depth Elevation
No new snow has been reported.

Earthquake Activity

City Distance Mag. Time & Date
No recent earthquake activity has been reported nearby.
Minimum magnitude displayed is 2.5.

Coastal Water Temperatures

Place Temperature
Sandy Hook, NJ 69.1 °F
The Battery, NY 71.1 °F
Bergen Point West Reach, NJ 70.0 °F
Kings Point, NY 69.1 °F

Nearby Weather Stations